sensor_id;sensor_type;location;lat;lon;timestamp;P1;durP1;ratioP1;P2;durP2;ratioP2
68178;SDS011;69812;42.632;23.440;2024-01-06T00:00:56;51.28;;;23.38;;
68178;SDS011;69812;42.632;23.440;2024-01-06T00:03:21;49.08;;;21.23;;
68178;SDS011;69812;42.632;23.440;2024-01-06T00:05:47;56.28;;;22.60;;
68178;SDS011;69812;42.632;23.440;2024-01-06T00:08:12;56.72;;;22.58;;
68178;SDS011;69812;42.632;23.440;2024-01-06T00:10:37;52.70;;;22.42;;
68178;SDS011;69812;42.632;23.440;2024-01-06T00:13:03;44.15;;;19.08;;
68178;SDS011;69812;42.632;23.440;2024-01-06T00:15:28;49.47;;;20.70;;
68178;SDS011;69812;42.632;23.440;2024-01-06T00:17:54;65.93;;;27.98;;
68178;SDS011;69812;42.632;23.440;2024-01-06T00:20:19;67.75;;;29.35;;
68178;SDS011;69812;42.632;23.440;2024-01-06T00:22:44;57.20;;;25.33;;
68178;SDS011;69812;42.632;23.440;2024-01-06T00:25:10;55.50;;;24.05;;
68178;SDS011;69812;42.632;23.440;2024-01-06T00:27:35;49.00;;;20.88;;
68178;SDS011;69812;42.632;23.440;2024-01-06T00:30:01;50.90;;;22.00;;
68178;SDS011;69812;42.632;23.440;2024-01-06T00:32:26;54.92;;;21.17;;
68178;SDS011;69812;42.632;23.440;2024-01-06T00:34:51;46.28;;;20.42;;
68178;SDS011;69812;42.632;23.440;2024-01-06T00:37:17;50.00;;;20.65;;
68178;SDS011;69812;42.632;23.440;2024-01-06T00:39:42;50.08;;;21.10;;
68178;SDS011;69812;42.632;23.440;2024-01-06T00:42:08;49.70;;;21.83;;
68178;SDS011;69812;42.632;23.440;2024-01-06T00:44:35;48.28;;;21.90;;
68178;SDS011;69812;42.632;23.440;2024-01-06T00:47:01;51.85;;;22.48;;
68178;SDS011;69812;42.632;23.440;2024-01-06T00:49:26;50.55;;;21.13;;
68178;SDS011;69812;42.632;23.440;2024-01-06T00:51:52;48.35;;;20.73;;
68178;SDS011;69812;42.632;23.440;2024-01-06T00:54:19;54.05;;;22.92;;
68178;SDS011;69812;42.632;23.440;2024-01-06T00:56:45;62.53;;;25.55;;
68178;SDS011;69812;42.632;23.440;2024-01-06T00:59:10;50.83;;;23.05;;
68178;SDS011;69812;42.632;23.440;2024-01-06T01:01:35;43.17;;;21.02;;
68178;SDS011;69812;42.632;23.440;2024-01-06T01:04:01;41.88;;;19.75;;
68178;SDS011;69812;42.632;23.440;2024-01-06T01:06:26;78.57;;;28.45;;
68178;SDS011;69812;42.632;23.440;2024-01-06T01:08:52;111.35;;;49.15;;
68178;SDS011;69812;42.632;23.440;2024-01-06T01:11:18;60.30;;;26.00;;
68178;SDS011;69812;42.632;23.440;2024-01-06T01:13:44;73.90;;;27.85;;
68178;SDS011;69812;42.632;23.440;2024-01-06T01:16:09;74.18;;;28.35;;
68178;SDS011;69812;42.632;23.440;2024-01-06T01:18:35;55.05;;;23.75;;
68178;SDS011;69812;42.632;23.440;2024-01-06T01:21:00;51.58;;;21.80;;
68178;SDS011;69812;42.632;23.440;2024-01-06T01:23:26;46.42;;;21.20;;
68178;SDS011;69812;42.632;23.440;2024-01-06T01:25:51;46.00;;;20.30;;
68178;SDS011;69812;42.632;23.440;2024-01-06T01:28:16;48.05;;;20.45;;
68178;SDS011;69812;42.632;23.440;2024-01-06T01:30:42;59.80;;;23.25;;
68178;SDS011;69812;42.632;23.440;2024-01-06T01:33:07;57.75;;;21.85;;
68178;SDS011;69812;42.632;23.440;2024-01-06T01:35:33;52.17;;;20.67;;
68178;SDS011;69812;42.632;23.440;2024-01-06T01:37:58;41.90;;;18.55;;
68178;SDS011;69812;42.632;23.440;2024-01-06T01:40:24;53.60;;;21.70;;
68178;SDS011;69812;42.632;23.440;2024-01-06T01:42:51;46.63;;;19.13;;
68178;SDS011;69812;42.632;23.440;2024-01-06T01:45:17;51.60;;;22.05;;
68178;SDS011;69812;42.632;23.440;2024-01-06T01:47:42;52.28;;;23.55;;
68178;SDS011;69812;42.632;23.440;2024-01-06T01:50:10;42.47;;;18.85;;
68178;SDS011;69812;42.632;23.440;2024-01-06T01:52:39;44.10;;;19.25;;
68178;SDS011;69812;42.632;23.440;2024-01-06T01:55:07;54.13;;;24.80;;
68178;SDS011;69812;42.632;23.440;2024-01-06T01:57:33;42.38;;;20.02;;
68178;SDS011;69812;42.632;23.440;2024-01-06T01:59:59;48.75;;;21.67;;
68178;SDS011;69812;42.632;23.440;2024-01-06T02:02:25;48.95;;;21.92;;
68178;SDS011;69812;42.632;23.440;2024-01-06T02:04:51;48.95;;;21.15;;
68178;SDS011;69812;42.632;23.440;2024-01-06T02:07:17;45.30;;;20.85;;
68178;SDS011;69812;42.632;23.440;2024-01-06T02:09:42;47.97;;;20.60;;
68178;SDS011;69812;42.632;23.440;2024-01-06T02:12:08;44.13;;;19.40;;
68178;SDS011;69812;42.632;23.440;2024-01-06T02:14:33;41.25;;;18.50;;
68178;SDS011;69812;42.632;23.440;2024-01-06T02:16:59;45.03;;;19.50;;
68178;SDS011;69812;42.632;23.440;2024-01-06T02:19:24;37.17;;;17.02;;
68178;SDS011;69812;42.632;23.440;2024-01-06T02:21:51;34.25;;;15.85;;
68178;SDS011;69812;42.632;23.440;2024-01-06T02:24:18;27.08;;;12.65;;
68178;SDS011;69812;42.632;23.440;2024-01-06T02:26:43;31.42;;;14.13;;
68178;SDS011;69812;42.632;23.440;2024-01-06T02:29:09;36.33;;;16.65;;
68178;SDS011;69812;42.632;23.440;2024-01-06T02:31:34;37.78;;;19.17;;
68178;SDS011;69812;42.632;23.440;2024-01-06T02:34:00;44.85;;;18.63;;
68178;SDS011;69812;42.632;23.440;2024-01-06T02:36:25;35.20;;;15.65;;
68178;SDS011;69812;42.632;23.440;2024-01-06T02:38:50;31.45;;;15.75;;
68178;SDS011;69812;42.632;23.440;2024-01-06T02:41:16;36.42;;;16.55;;
68178;SDS011;69812;42.632;23.440;2024-01-06T02:43:41;32.60;;;14.57;;
68178;SDS011;69812;42.632;23.440;2024-01-06T02:46:07;38.42;;;15.93;;
68178;SDS011;69812;42.632;23.440;2024-01-06T02:48:32;31.08;;;14.60;;
68178;SDS011;69812;42.632;23.440;2024-01-06T02:51:00;27.17;;;13.48;;
68178;SDS011;69812;42.632;23.440;2024-01-06T02:53:25;34.85;;;15.48;;
68178;SDS011;69812;42.632;23.440;2024-01-06T02:55:51;39.28;;;14.68;;
68178;SDS011;69812;42.632;23.440;2024-01-06T02:58:16;28.48;;;14.27;;
68178;SDS011;69812;42.632;23.440;2024-01-06T03:00:41;31.23;;;15.40;;
68178;SDS011;69812;42.632;23.440;2024-01-06T03:03:07;30.80;;;15.50;;
68178;SDS011;69812;42.632;23.440;2024-01-06T03:05:32;30.63;;;14.38;;
68178;SDS011;69812;42.632;23.440;2024-01-06T03:07:57;30.83;;;14.13;;
68178;SDS011;69812;42.632;23.440;2024-01-06T03:10:23;33.00;;;14.73;;
68178;SDS011;69812;42.632;23.440;2024-01-06T03:12:48;30.00;;;14.30;;
68178;SDS011;69812;42.632;23.440;2024-01-06T03:15:14;33.70;;;16.02;;
68178;SDS011;69812;42.632;23.440;2024-01-06T03:17:39;38.10;;;16.98;;
68178;SDS011;69812;42.632;23.440;2024-01-06T03:20:05;37.22;;;16.75;;
68178;SDS011;69812;42.632;23.440;2024-01-06T03:22:31;35.05;;;15.52;;
68178;SDS011;69812;42.632;23.440;2024-01-06T03:24:56;32.97;;;16.77;;
68178;SDS011;69812;42.632;23.440;2024-01-06T03:27:22;35.50;;;17.42;;
68178;SDS011;69812;42.632;23.440;2024-01-06T03:29:47;43.45;;;17.40;;
68178;SDS011;69812;42.632;23.440;2024-01-06T03:32:12;33.15;;;15.95;;
68178;SDS011;69812;42.632;23.440;2024-01-06T03:34:40;35.10;;;17.45;;
68178;SDS011;69812;42.632;23.440;2024-01-06T03:37:06;41.40;;;19.50;;
68178;SDS011;69812;42.632;23.440;2024-01-06T03:39:31;36.28;;;17.95;;
68178;SDS011;69812;42.632;23.440;2024-01-06T03:41:57;37.60;;;17.20;;
68178;SDS011;69812;42.632;23.440;2024-01-06T03:44:22;38.53;;;17.73;;
68178;SDS011;69812;42.632;23.440;2024-01-06T03:46:47;41.50;;;19.42;;
68178;SDS011;69812;42.632;23.440;2024-01-06T03:49:13;36.88;;;17.90;;
68178;SDS011;69812;42.632;23.440;2024-01-06T03:51:38;42.72;;;18.38;;
68178;SDS011;69812;42.632;23.440;2024-01-06T03:54:03;39.60;;;18.17;;
68178;SDS011;69812;42.632;23.440;2024-01-06T03:56:32;39.92;;;17.60;;
68178;SDS011;69812;42.632;23.440;2024-01-06T03:58:57;38.88;;;19.23;;
68178;SDS011;69812;42.632;23.440;2024-01-06T04:01:23;44.55;;;20.45;;
68178;SDS011;69812;42.632;23.440;2024-01-06T04:03:48;41.83;;;18.67;;
68178;SDS011;69812;42.632;23.440;2024-01-06T04:06:13;37.60;;;17.63;;
68178;SDS011;69812;42.632;23.440;2024-01-06T04:08:39;39.45;;;17.83;;
68178;SDS011;69812;42.632;23.440;2024-01-06T04:11:06;41.67;;;18.92;;
68178;SDS011;69812;42.632;23.440;2024-01-06T04:13:34;47.53;;;21.58;;
68178;SDS011;69812;42.632;23.440;2024-01-06T04:15:59;42.10;;;20.85;;
68178;SDS011;69812;42.632;23.440;2024-01-06T04:18:25;47.75;;;23.30;;
68178;SDS011;69812;42.632;23.440;2024-01-06T04:20:53;41.28;;;19.42;;
68178;SDS011;69812;42.632;23.440;2024-01-06T04:23:21;39.80;;;20.98;;
68178;SDS011;69812;42.632;23.440;2024-01-06T04:25:46;42.65;;;20.88;;
68178;SDS011;69812;42.632;23.440;2024-01-06T04:28:12;39.13;;;19.33;;
68178;SDS011;69812;42.632;23.440;2024-01-06T04:30:37;35.88;;;18.52;;
68178;SDS011;69812;42.632;23.440;2024-01-06T04:33:03;35.30;;;17.40;;
68178;SDS011;69812;42.632;23.440;2024-01-06T04:35:28;36.65;;;16.83;;
68178;SDS011;69812;42.632;23.440;2024-01-06T04:37:54;32.28;;;15.63;;
68178;SDS011;69812;42.632;23.440;2024-01-06T04:40:19;35.95;;;16.73;;
68178;SDS011;69812;42.632;23.440;2024-01-06T04:42:44;39.20;;;18.02;;
68178;SDS011;69812;42.632;23.440;2024-01-06T04:45:10;34.88;;;16.30;;
68178;SDS011;69812;42.632;23.440;2024-01-06T04:47:35;31.67;;;16.77;;
68178;SDS011;69812;42.632;23.440;2024-01-06T04:50:00;34.90;;;17.38;;
68178;SDS011;69812;42.632;23.440;2024-01-06T04:52:26;34.03;;;16.25;;
68178;SDS011;69812;42.632;23.440;2024-01-06T04:54:51;28.73;;;13.93;;
68178;SDS011;69812;42.632;23.440;2024-01-06T04:57:16;32.88;;;16.45;;
68178;SDS011;69812;42.632;23.440;2024-01-06T04:59:42;36.42;;;17.00;;
68178;SDS011;69812;42.632;23.440;2024-01-06T05:02:07;50.22;;;23.80;;
68178;SDS011;69812;42.632;23.440;2024-01-06T05:04:33;36.58;;;17.15;;
68178;SDS011;69812;42.632;23.440;2024-01-06T05:06:58;32.47;;;15.02;;
68178;SDS011;69812;42.632;23.440;2024-01-06T05:09:25;31.63;;;15.43;;
68178;SDS011;69812;42.632;23.440;2024-01-06T05:11:50;27.23;;;14.43;;
68178;SDS011;69812;42.632;23.440;2024-01-06T05:14:16;31.80;;;16.08;;
68178;SDS011;69812;42.632;23.440;2024-01-06T05:16:41;32.17;;;16.50;;
68178;SDS011;69812;42.632;23.440;2024-01-06T05:19:07;25.88;;;13.70;;
68178;SDS011;69812;42.632;23.440;2024-01-06T05:21:33;22.73;;;11.52;;
68178;SDS011;69812;42.632;23.440;2024-01-06T05:23:59;24.33;;;11.07;;
68178;SDS011;69812;42.632;23.440;2024-01-06T05:26:24;23.42;;;11.73;;
68178;SDS011;69812;42.632;23.440;2024-01-06T05:28:51;26.48;;;11.70;;
68178;SDS011;69812;42.632;23.440;2024-01-06T05:31:17;22.65;;;11.48;;
68178;SDS011;69812;42.632;23.440;2024-01-06T05:33:42;23.00;;;10.65;;
68178;SDS011;69812;42.632;23.440;2024-01-06T05:36:08;26.95;;;12.70;;
68178;SDS011;69812;42.632;23.440;2024-01-06T05:38:33;21.08;;;11.88;;
68178;SDS011;69812;42.632;23.440;2024-01-06T05:40:58;24.10;;;9.55;;
68178;SDS011;69812;42.632;23.440;2024-01-06T05:43:24;38.67;;;15.05;;
68178;SDS011;69812;42.632;23.440;2024-01-06T05:45:49;45.13;;;16.48;;
68178;SDS011;69812;42.632;23.440;2024-01-06T05:48:15;33.63;;;13.13;;
68178;SDS011;69812;42.632;23.440;2024-01-06T05:50:40;27.75;;;11.52;;
68178;SDS011;69812;42.632;23.440;2024-01-06T05:53:06;29.13;;;13.07;;
68178;SDS011;69812;42.632;23.440;2024-01-06T05:55:32;28.92;;;13.18;;
68178;SDS011;69812;42.632;23.440;2024-01-06T05:57:58;32.97;;;12.45;;
68178;SDS011;69812;42.632;23.440;2024-01-06T06:00:23;28.90;;;12.63;;
68178;SDS011;69812;42.632;23.440;2024-01-06T06:02:49;27.52;;;13.52;;
68178;SDS011;69812;42.632;23.440;2024-01-06T06:05:14;26.88;;;13.02;;
68178;SDS011;69812;42.632;23.440;2024-01-06T06:07:39;24.95;;;13.00;;
68178;SDS011;69812;42.632;23.440;2024-01-06T06:10:08;24.98;;;13.27;;
68178;SDS011;69812;42.632;23.440;2024-01-06T06:12:35;30.40;;;12.38;;
68178;SDS011;69812;42.632;23.440;2024-01-06T06:15:01;24.48;;;12.00;;
68178;SDS011;69812;42.632;23.440;2024-01-06T06:17:28;30.52;;;13.02;;
68178;SDS011;69812;42.632;23.440;2024-01-06T06:19:54;28.88;;;13.85;;
68178;SDS011;69812;42.632;23.440;2024-01-06T06:22:20;23.20;;;10.85;;
68178;SDS011;69812;42.632;23.440;2024-01-06T06:24:46;18.17;;;8.25;;
68178;SDS011;69812;42.632;23.440;2024-01-06T06:27:12;22.02;;;10.23;;
68178;SDS011;69812;42.632;23.440;2024-01-06T06:29:37;30.20;;;14.45;;
68178;SDS011;69812;42.632;23.440;2024-01-06T06:32:03;34.60;;;17.20;;
68178;SDS011;69812;42.632;23.440;2024-01-06T06:34:28;29.73;;;14.77;;
68178;SDS011;69812;42.632;23.440;2024-01-06T06:36:54;29.58;;;15.20;;
68178;SDS011;69812;42.632;23.440;2024-01-06T06:39:19;25.65;;;12.60;;
68178;SDS011;69812;42.632;23.440;2024-01-06T06:41:44;28.20;;;13.68;;
68178;SDS011;69812;42.632;23.440;2024-01-06T06:44:10;27.42;;;12.75;;
68178;SDS011;69812;42.632;23.440;2024-01-06T06:46:35;21.88;;;11.55;;
68178;SDS011;69812;42.632;23.440;2024-01-06T06:49:01;28.75;;;13.45;;
68178;SDS011;69812;42.632;23.440;2024-01-06T06:51:27;28.58;;;14.52;;
68178;SDS011;69812;42.632;23.440;2024-01-06T06:53:53;26.73;;;12.68;;
68178;SDS011;69812;42.632;23.440;2024-01-06T06:56:19;21.02;;;11.70;;
68178;SDS011;69812;42.632;23.440;2024-01-06T06:58:44;25.05;;;11.45;;
68178;SDS011;69812;42.632;23.440;2024-01-06T07:01:10;24.40;;;12.02;;
68178;SDS011;69812;42.632;23.440;2024-01-06T07:03:35;22.45;;;10.95;;
68178;SDS011;69812;42.632;23.440;2024-01-06T07:06:01;22.85;;;11.48;;
68178;SDS011;69812;42.632;23.440;2024-01-06T07:08:26;20.05;;;9.43;;
68178;SDS011;69812;42.632;23.440;2024-01-06T07:10:52;20.73;;;9.93;;
68178;SDS011;69812;42.632;23.440;2024-01-06T07:13:18;21.25;;;10.25;;
68178;SDS011;69812;42.632;23.440;2024-01-06T07:15:43;16.70;;;9.35;;
68178;SDS011;69812;42.632;23.440;2024-01-06T07:18:10;14.88;;;8.35;;
68178;SDS011;69812;42.632;23.440;2024-01-06T07:20:35;24.38;;;11.00;;
68178;SDS011;69812;42.632;23.440;2024-01-06T07:23:00;17.27;;;9.07;;
68178;SDS011;69812;42.632;23.440;2024-01-06T07:25:28;21.17;;;9.23;;
68178;SDS011;69812;42.632;23.440;2024-01-06T07:27:53;14.95;;;8.55;;
68178;SDS011;69812;42.632;23.440;2024-01-06T07:30:18;16.52;;;9.02;;
68178;SDS011;69812;42.632;23.440;2024-01-06T07:32:44;19.48;;;9.70;;
68178;SDS011;69812;42.632;23.440;2024-01-06T07:35:09;23.63;;;9.70;;
68178;SDS011;69812;42.632;23.440;2024-01-06T07:37:35;21.70;;;9.65;;
68178;SDS011;69812;42.632;23.440;2024-01-06T07:40:00;20.17;;;10.05;;
68178;SDS011;69812;42.632;23.440;2024-01-06T07:42:25;19.10;;;10.88;;
68178;SDS011;69812;42.632;23.440;2024-01-06T07:44:51;19.52;;;10.85;;
68178;SDS011;69812;42.632;23.440;2024-01-06T07:47:16;18.20;;;9.90;;
68178;SDS011;69812;42.632;23.440;2024-01-06T07:49:41;26.45;;;12.27;;
68178;SDS011;69812;42.632;23.440;2024-01-06T07:52:07;26.85;;;12.18;;
68178;SDS011;69812;42.632;23.440;2024-01-06T07:54:32;34.38;;;14.25;;
68178;SDS011;69812;42.632;23.440;2024-01-06T07:56:57;37.28;;;16.40;;
68178;SDS011;69812;42.632;23.440;2024-01-06T07:59:24;30.48;;;16.30;;
68178;SDS011;69812;42.632;23.440;2024-01-06T08:01:49;21.95;;;11.38;;
68178;SDS011;69812;42.632;23.440;2024-01-06T08:04:14;22.45;;;11.18;;
68178;SDS011;69812;42.632;23.440;2024-01-06T08:06:40;21.20;;;10.55;;
68178;SDS011;69812;42.632;23.440;2024-01-06T08:09:05;19.63;;;10.68;;
68178;SDS011;69812;42.632;23.440;2024-01-06T08:11:31;23.27;;;10.98;;
68178;SDS011;69812;42.632;23.440;2024-01-06T08:13:56;17.70;;;8.70;;
68178;SDS011;69812;42.632;23.440;2024-01-06T08:16:21;14.90;;;7.80;;
68178;SDS011;69812;42.632;23.440;2024-01-06T08:18:47;16.73;;;9.13;;
68178;SDS011;69812;42.632;23.440;2024-01-06T08:21:12;24.15;;;11.27;;
68178;SDS011;69812;42.632;23.440;2024-01-06T08:23:38;19.13;;;9.88;;
68178;SDS011;69812;42.632;23.440;2024-01-06T08:26:03;24.63;;;11.23;;
68178;SDS011;69812;42.632;23.440;2024-01-06T08:28:30;24.58;;;12.18;;
68178;SDS011;69812;42.632;23.440;2024-01-06T08:30:55;22.48;;;11.90;;
68178;SDS011;69812;42.632;23.440;2024-01-06T08:33:21;23.60;;;11.60;;
68178;SDS011;69812;42.632;23.440;2024-01-06T08:35:46;25.88;;;12.13;;
68178;SDS011;69812;42.632;23.440;2024-01-06T08:38:12;21.92;;;10.80;;
68178;SDS011;69812;42.632;23.440;2024-01-06T08:40:37;22.67;;;9.93;;
68178;SDS011;69812;42.632;23.440;2024-01-06T08:43:03;21.88;;;11.70;;
68178;SDS011;69812;42.632;23.440;2024-01-06T08:45:28;26.45;;;14.18;;
68178;SDS011;69812;42.632;23.440;2024-01-06T08:47:54;31.15;;;14.00;;
68178;SDS011;69812;42.632;23.440;2024-01-06T08:50:19;30.55;;;15.32;;
68178;SDS011;69812;42.632;23.440;2024-01-06T08:52:45;28.40;;;15.65;;
68178;SDS011;69812;42.632;23.440;2024-01-06T08:55:10;31.70;;;14.98;;
68178;SDS011;69812;42.632;23.440;2024-01-06T08:57:36;33.70;;;15.57;;
68178;SDS011;69812;42.632;23.440;2024-01-06T09:00:02;37.55;;;18.85;;
68178;SDS011;69812;42.632;23.440;2024-01-06T09:02:29;41.20;;;18.73;;
68178;SDS011;69812;42.632;23.440;2024-01-06T09:04:54;34.28;;;16.25;;
68178;SDS011;69812;42.632;23.440;2024-01-06T09:07:19;32.95;;;16.52;;
68178;SDS011;69812;42.632;23.440;2024-01-06T09:09:45;27.70;;;15.75;;
68178;SDS011;69812;42.632;23.440;2024-01-06T09:12:10;32.58;;;16.35;;
68178;SDS011;69812;42.632;23.440;2024-01-06T09:14:35;27.85;;;13.80;;
68178;SDS011;69812;42.632;23.440;2024-01-06T09:17:01;28.95;;;14.52;;
68178;SDS011;69812;42.632;23.440;2024-01-06T09:19:26;29.50;;;14.40;;
68178;SDS011;69812;42.632;23.440;2024-01-06T09:21:53;24.85;;;13.30;;
68178;SDS011;69812;42.632;23.440;2024-01-06T09:24:19;27.13;;;14.80;;
68178;SDS011;69812;42.632;23.440;2024-01-06T09:26:45;29.02;;;13.68;;
68178;SDS011;69812;42.632;23.440;2024-01-06T09:29:11;26.30;;;14.25;;
68178;SDS011;69812;42.632;23.440;2024-01-06T09:31:36;27.60;;;14.25;;
68178;SDS011;69812;42.632;23.440;2024-01-06T09:34:02;26.50;;;14.50;;
68178;SDS011;69812;42.632;23.440;2024-01-06T09:36:31;25.30;;;13.82;;
68178;SDS011;69812;42.632;23.440;2024-01-06T09:38:56;24.35;;;13.02;;
68178;SDS011;69812;42.632;23.440;2024-01-06T09:41:22;24.92;;;12.93;;
68178;SDS011;69812;42.632;23.440;2024-01-06T09:43:48;26.95;;;12.40;;
68178;SDS011;69812;42.632;23.440;2024-01-06T09:48:57;23.35;;;12.93;;
68178;SDS011;69812;42.632;23.440;2024-01-06T09:51:23;23.10;;;12.23;;
68178;SDS011;69812;42.632;23.440;2024-01-06T09:54:00;24.08;;;12.07;;
68178;SDS011;69812;42.632;23.440;2024-01-06T09:56:26;19.58;;;11.27;;
68178;SDS011;69812;42.632;23.440;2024-01-06T09:58:53;21.00;;;12.15;;
68178;SDS011;69812;42.632;23.440;2024-01-06T10:01:19;22.40;;;12.18;;
68178;SDS011;69812;42.632;23.440;2024-01-06T10:03:45;20.63;;;11.07;;
68178;SDS011;69812;42.632;23.440;2024-01-06T10:06:10;18.63;;;10.65;;
68178;SDS011;69812;42.632;23.440;2024-01-06T10:08:37;16.42;;;9.05;;
68178;SDS011;69812;42.632;23.440;2024-01-06T10:11:05;16.30;;;8.73;;
68178;SDS011;69812;42.632;23.440;2024-01-06T10:13:31;15.45;;;8.25;;
68178;SDS011;69812;42.632;23.440;2024-01-06T10:15:57;17.30;;;9.32;;
68178;SDS011;69812;42.632;23.440;2024-01-06T10:18:23;14.30;;;8.48;;
68178;SDS011;69812;42.632;23.440;2024-01-06T10:20:50;15.38;;;8.88;;
68178;SDS011;69812;42.632;23.440;2024-01-06T10:23:16;15.50;;;9.55;;
68178;SDS011;69812;42.632;23.440;2024-01-06T10:25:41;19.45;;;8.57;;
68178;SDS011;69812;42.632;23.440;2024-01-06T10:28:10;15.10;;;9.05;;
68178;SDS011;69812;42.632;23.440;2024-01-06T10:30:37;17.80;;;8.50;;
68178;SDS011;69812;42.632;23.440;2024-01-06T10:33:07;17.77;;;9.23;;
68178;SDS011;69812;42.632;23.440;2024-01-06T10:35:33;19.40;;;10.35;;
68178;SDS011;69812;42.632;23.440;2024-01-06T10:38:00;18.15;;;9.90;;
68178;SDS011;69812;42.632;23.440;2024-01-06T10:40:26;16.33;;;9.25;;
68178;SDS011;69812;42.632;23.440;2024-01-06T10:42:51;19.48;;;9.98;;
68178;SDS011;69812;42.632;23.440;2024-01-06T10:45:17;18.70;;;9.93;;
68178;SDS011;69812;42.632;23.440;2024-01-06T10:47:43;17.48;;;10.32;;
68178;SDS011;69812;42.632;23.440;2024-01-06T10:50:09;19.67;;;10.63;;
68178;SDS011;69812;42.632;23.440;2024-01-06T10:52:35;21.00;;;12.93;;
68178;SDS011;69812;42.632;23.440;2024-01-06T10:55:02;24.45;;;13.30;;
68178;SDS011;69812;42.632;23.440;2024-01-06T10:57:30;29.85;;;14.15;;
68178;SDS011;69812;42.632;23.440;2024-01-06T10:59:57;29.10;;;14.85;;
68178;SDS011;69812;42.632;23.440;2024-01-06T11:02:24;26.55;;;14.02;;
68178;SDS011;69812;42.632;23.440;2024-01-06T11:04:50;25.38;;;14.38;;
68178;SDS011;69812;42.632;23.440;2024-01-06T11:07:17;30.10;;;15.20;;
68178;SDS011;69812;42.632;23.440;2024-01-06T11:09:47;27.20;;;15.07;;
68178;SDS011;69812;42.632;23.440;2024-01-06T11:12:18;24.25;;;14.23;;
68178;SDS011;69812;42.632;23.440;2024-01-06T11:14:44;29.70;;;16.00;;
68178;SDS011;69812;42.632;23.440;2024-01-06T11:17:11;32.72;;;15.70;;
68178;SDS011;69812;42.632;23.440;2024-01-06T11:24:43;27.52;;;15.70;;
68178;SDS011;69812;42.632;23.440;2024-01-06T11:27:20;25.17;;;13.32;;
68178;SDS011;69812;42.632;23.440;2024-01-06T11:29:48;23.40;;;12.77;;
68178;SDS011;69812;42.632;23.440;2024-01-06T11:32:34;22.60;;;12.20;;
68178;SDS011;69812;42.632;23.440;2024-01-06T11:35:13;22.45;;;11.43;;
68178;SDS011;69812;42.632;23.440;2024-01-06T11:40:09;18.67;;;10.75;;
68178;SDS011;69812;42.632;23.440;2024-01-06T11:42:34;23.83;;;11.25;;
68178;SDS011;69812;42.632;23.440;2024-01-06T11:45:04;24.75;;;11.85;;
68178;SDS011;69812;42.632;23.440;2024-01-06T11:47:33;19.90;;;10.98;;
68178;SDS011;69812;42.632;23.440;2024-01-06T11:50:00;19.27;;;11.05;;
68178;SDS011;69812;42.632;23.440;2024-01-06T11:52:29;23.13;;;11.45;;
68178;SDS011;69812;42.632;23.440;2024-01-06T11:54:56;20.92;;;11.45;;
68178;SDS011;69812;42.632;23.440;2024-01-06T11:57:24;30.38;;;14.13;;
68178;SDS011;69812;42.632;23.440;2024-01-06T12:02:17;18.93;;;10.03;;
68178;SDS011;69812;42.632;23.440;2024-01-06T12:04:47;16.05;;;9.15;;
68178;SDS011;69812;42.632;23.440;2024-01-06T12:07:21;17.10;;;8.50;;
68178;SDS011;69812;42.632;23.440;2024-01-06T12:09:51;12.68;;;6.35;;
68178;SDS011;69812;42.632;23.440;2024-01-06T12:12:27;11.98;;;5.68;;
68178;SDS011;69812;42.632;23.440;2024-01-06T12:14:52;9.05;;;5.38;;
68178;SDS011;69812;42.632;23.440;2024-01-06T12:17:19;9.07;;;4.80;;
68178;SDS011;69812;42.632;23.440;2024-01-06T12:19:46;9.90;;;5.30;;
68178;SDS011;69812;42.632;23.440;2024-01-06T12:22:12;8.80;;;5.05;;
68178;SDS011;69812;42.632;23.440;2024-01-06T12:24:39;11.95;;;5.60;;
68178;SDS011;69812;42.632;23.440;2024-01-06T12:27:06;10.45;;;4.50;;
68178;SDS011;69812;42.632;23.440;2024-01-06T12:29:34;11.07;;;5.55;;
68178;SDS011;69812;42.632;23.440;2024-01-06T12:32:03;8.80;;;4.50;;
68178;SDS011;69812;42.632;23.440;2024-01-06T12:34:28;7.60;;;4.32;;
68178;SDS011;69812;42.632;23.440;2024-01-06T12:36:54;9.05;;;4.40;;
68178;SDS011;69812;42.632;23.440;2024-01-06T12:39:27;11.05;;;5.47;;
68178;SDS011;69812;42.632;23.440;2024-01-06T12:41:54;8.32;;;4.95;;
68178;SDS011;69812;42.632;23.440;2024-01-06T12:44:19;9.90;;;5.10;;
68178;SDS011;69812;42.632;23.440;2024-01-06T12:46:45;9.50;;;5.15;;
68178;SDS011;69812;42.632;23.440;2024-01-06T12:49:10;8.98;;;5.35;;
68178;SDS011;69812;42.632;23.440;2024-01-06T12:51:35;11.27;;;5.20;;
68178;SDS011;69812;42.632;23.440;2024-01-06T12:54:01;8.57;;;5.07;;
68178;SDS011;69812;42.632;23.440;2024-01-06T12:56:26;9.45;;;5.53;;
68178;SDS011;69812;42.632;23.440;2024-01-06T12:58:52;9.82;;;5.07;;
68178;SDS011;69812;42.632;23.440;2024-01-06T13:01:18;10.30;;;5.80;;
68178;SDS011;69812;42.632;23.440;2024-01-06T13:03:43;11.55;;;5.78;;
68178;SDS011;69812;42.632;23.440;2024-01-06T13:06:09;11.00;;;5.43;;
68178;SDS011;69812;42.632;23.440;2024-01-06T13:11:02;11.48;;;5.93;;
68178;SDS011;69812;42.632;23.440;2024-01-06T13:13:29;9.77;;;5.22;;
68178;SDS011;69812;42.632;23.440;2024-01-06T13:15:56;10.65;;;5.53;;
68178;SDS011;69812;42.632;23.440;2024-01-06T13:18:22;10.98;;;5.97;;
68178;SDS011;69812;42.632;23.440;2024-01-06T13:20:47;10.90;;;6.63;;
68178;SDS011;69812;42.632;23.440;2024-01-06T13:23:13;13.80;;;7.18;;
68178;SDS011;69812;42.632;23.440;2024-01-06T13:25:38;17.17;;;8.25;;
68178;SDS011;69812;42.632;23.440;2024-01-06T13:28:05;13.82;;;7.80;;
68178;SDS011;69812;42.632;23.440;2024-01-06T13:30:31;12.85;;;7.50;;
68178;SDS011;69812;42.632;23.440;2024-01-06T13:32:57;13.27;;;7.57;;
68178;SDS011;69812;42.632;23.440;2024-01-06T13:35:23;13.38;;;7.25;;
68178;SDS011;69812;42.632;23.440;2024-01-06T13:37:53;14.57;;;6.55;;
68178;SDS011;69812;42.632;23.440;2024-01-06T13:45:12;8.80;;;4.93;;
68178;SDS011;69812;42.632;23.440;2024-01-06T13:47:40;8.23;;;4.50;;
68178;SDS011;69812;42.632;23.440;2024-01-06T13:50:10;8.80;;;5.05;;
68178;SDS011;69812;42.632;23.440;2024-01-06T13:52:37;9.93;;;4.88;;
68178;SDS011;69812;42.632;23.440;2024-01-06T13:55:03;13.82;;;5.90;;
68178;SDS011;69812;42.632;23.440;2024-01-06T13:57:28;16.30;;;5.93;;
68178;SDS011;69812;42.632;23.440;2024-01-06T13:59:56;12.60;;;5.60;;
68178;SDS011;69812;42.632;23.440;2024-01-06T14:02:22;10.25;;;6.00;;
68178;SDS011;69812;42.632;23.440;2024-01-06T14:04:48;11.55;;;5.78;;
68178;SDS011;69812;42.632;23.440;2024-01-06T14:07:14;9.38;;;4.88;;
68178;SDS011;69812;42.632;23.440;2024-01-06T14:09:39;12.93;;;4.72;;
68178;SDS011;69812;42.632;23.440;2024-01-06T14:12:04;12.07;;;4.85;;
68178;SDS011;69812;42.632;23.440;2024-01-06T14:14:33;8.75;;;4.75;;
68178;SDS011;69812;42.632;23.440;2024-01-06T14:16:58;10.65;;;4.75;;
68178;SDS011;69812;42.632;23.440;2024-01-06T14:19:24;10.25;;;4.70;;
68178;SDS011;69812;42.632;23.440;2024-01-06T14:21:49;11.18;;;5.15;;
68178;SDS011;69812;42.632;23.440;2024-01-06T14:24:16;10.90;;;5.38;;
68178;SDS011;69812;42.632;23.440;2024-01-06T14:26:48;11.13;;;6.05;;